Missanabie, Canada
Current Conditions -  °F | °C
As of 6:00 AM on Thursday 18 Dec 2014 (Local Time) from CYXZ Reporting Station
Clear Clear  
Wind Chill: -9°   Ceiling: Unl
Heat Index:   Visibility: 15mi
Dew Point: -6°   Wind: 7mph
Humidity: 66%   Direction: 30°NNE
Pressure: 30.27"   Gusts: NA
Location:  48.3°N, 84.08°W
Report Text: CYXZ 181100Z 03006KT 15SM SKC M16/M21 A3027 RMK SLP278
Loading
Personal Weather Stations






























Interactive Weather Map New forecast layout! Learn more

10-Day Weather Forecast

Advertisements
Track Severe Weather on mobile